Aviation Digital Data Service (ADDS)

Output produced by METARs form (1308 UTC 24 August 2019)
found at http://www.aviationweather.gov/metar/data/
 
Forecast for: KDAL (DALLAS/LOVE FLD , TX, US)
Text: KDAL 241125Z 2412/2512 15008KT P6SM FEW030 SCT150 BKN300
Forecast period: 1200 to 1900 UTC 24 August 2019
Forecast type: FROM: standard forecast or significant change
Winds: from the SSE (150 degrees) at 9 MPH (8 knots; 4.1 m/s)
Visibility: 6 or more miles 10+ km)
Ceiling: 30000 feet AGL
Clouds: few clouds at 3000 feet AGL
scattered clouds at 15000 feet AGL
broken clouds at 30000 feet AGL
Weather: no significant weather forecast for this period
Text: FM241900 14008KT P6SM VCTS SCT050CB BKN250
Forecast period: 1900 UTC 24 August 2019 to 0000 UTC 25 August 2019
Forecast type: FROM: standard forecast or significant change
Winds: from the SE (140 degrees) at 9 MPH (8 knots; 4.1 m/s)
Visibility: 6 or more miles 10+ km)
Ceiling: 25000 feet AGL
Clouds: scattered clouds at 5000 feet AGL
broken clouds at 25000 feet AGL
Weather: VCTS  (thunderstorm in vicinity)
Text: FM250000 15007KT P6SM SCT250
Forecast period: 0000 to 1200 UTC 25 August 2019
Forecast type: FROM: standard forecast or significant change
Winds: from the SSE (150 degrees) at 8 MPH (7 knots; 3.6 m/s)
Visibility: 6 or more miles 10+ km)
Ceiling: at least 12,000 feet AGL
Clouds: scattered clouds at 25000 feet AGL
Weather: no significant weather forecast for this period